Time;durP1;ratioP1;P1;durP2;ratioP2;P2;SDS_P1;SDS_P2;PMS_P1;PMS_P2;Temp;Humidity;BMP_temperature;BMP_pressure;BME280_temperature;BME280_humidity;BME280_pressure;Samples;Min_cycle;Max_cycle;Signal;HPM_P1;HPM_P2
2022/12/01 00:01:14;;;;;;;27.03;18.07;;;;;;;4.35;64.41;99997.42;2235160;79;20941;-78
2022/12/01 00:04:14;;;;;;;24.17;16.43;;;;;;;4.13;65.51;99994.43;2235103;79;20957;-79
2022/12/01 00:07:15;;;;;;;27.57;17.60;;;;;;;3.94;66.56;99992.52;2235307;79;20894;-78
2022/12/01 00:10:25;;;;;;;31.30;18.97;;;;;;;3.72;67.06;99992.11;2235002;80;21290;-78
2022/12/01 00:13:26;;;;;;;32.60;19.37;;;;;;;3.53;68.04;99999.20;2234232;79;20926;-79
2022/12/01 00:16:26;;;;;;;31.50;19.73;;;;;;;3.34;68.86;99995.92;2234891;79;20981;-79
2022/12/01 00:19:27;;;;;;;32.40;19.40;;;;;;;3.26;69.60;99993.30;2235507;79;20929;-78
2022/12/01 00:22:27;;;;;;;29.50;20.00;;;;;;;3.20;70.12;100009.31;2235119;79;20874;-78
2022/12/01 00:25:27;;;;;;;28.57;18.63;;;;;;;3.12;70.37;99995.06;2235097;79;20894;-78
2022/12/01 00:28:28;;;;;;;32.77;20.00;;;;;;;3.12;70.96;99993.77;2235332;79;20883;-79
2022/12/01 00:31:28;;;;;;;33.37;19.03;;;;;;;3.09;71.51;99992.70;2235593;79;20922;-79
2022/12/01 00:34:29;;;;;;;31.60;18.47;;;;;;;3.07;71.62;99993.01;2235291;79;21330;-79
2022/12/01 00:37:29;;;;;;;34.37;18.87;;;;;;;3.00;72.22;99991.75;2235362;79;20945;-79
2022/12/01 00:40:29;;;;;;;32.87;19.00;;;;;;;2.94;72.57;99987.52;2235327;79;20946;-79
2022/12/01 00:43:30;;;;;;;29.33;18.60;;;;;;;2.87;72.83;99989.23;2234973;79;21000;-78
2022/12/01 00:46:30;;;;;;;34.47;20.20;;;;;;;2.79;73.39;99993.05;2235125;79;20943;-78
2022/12/01 00:49:31;;;;;;;28.10;18.80;;;;;;;2.76;73.57;99992.46;2275484;78;20942;-79
2022/12/01 00:52:31;;;;;;;33.23;18.47;;;;;;;2.77;73.86;99989.48;2280102;78;20930;-78
2022/12/01 00:55:31;;;;;;;34.10;18.87;;;;;;;2.75;74.10;99993.66;2280272;78;20891;-78
2022/12/01 00:58:32;;;;;;;30.30;17.83;;;;;;;2.73;74.31;99992.67;2280145;78;21045;-78
2022/12/01 01:01:33;;;;;;;26.93;17.03;;;;;;;2.71;74.61;99989.11;2280192;78;20986;-79
2022/12/01 01:04:33;;;;;;;30.53;18.30;;;;;;;2.65;74.70;99984.88;2280191;78;20910;-78
2022/12/01 01:07:33;;;;;;;28.00;17.47;;;;;;;2.62;75.19;99982.11;2280114;78;20892;-78
2022/12/01 01:10:34;;;;;;;31.60;18.93;;;;;;;2.64;75.26;99983.98;2280116;78;20887;-78
2022/12/01 01:13:34;;;;;;;27.77;16.90;;;;;;;2.60;75.50;99978.15;2279937;78;21330;-78
2022/12/01 01:16:34;;;;;;;24.33;15.90;;;;;;;2.58;75.82;99977.53;2280035;78;20922;-78
2022/12/01 01:19:35;;;;;;;26.40;17.43;;;;;;;2.51;75.96;99974.58;2280182;78;20926;-78
2022/12/01 01:22:35;;;;;;;24.70;15.97;;;;;;;2.46;76.18;99974.69;2280146;78;20855;-78
2022/12/01 01:25:36;;;;;;;25.33;16.47;;;;;;;2.44;76.47;99973.70;2280299;78;20898;-78
2022/12/01 01:28:36;;;;;;;22.03;16.30;;;;;;;2.46;76.78;99977.27;2280191;78;20910;-78
2022/12/01 01:31:36;;;;;;;25.10;17.87;;;;;;;2.43;77.13;99975.79;2280300;78;20895;-78
2022/12/01 01:34:37;;;;;;;26.03;17.40;;;;;;;2.41;77.25;99967.47;2280072;78;20935;-78
2022/12/01 01:37:37;;;;;;;29.90;17.50;;;;;;;2.36;77.42;99969.77;2279746;78;21373;-78
2022/12/01 01:40:38;;;;;;;26.87;17.47;;;;;;;2.39;77.57;99963.91;2280093;78;20926;-78
2022/12/01 01:43:38;;;;;;;34.50;18.10;;;;;;;2.39;77.78;99969.06;2280087;78;20946;-79
2022/12/01 01:46:38;;;;;;;25.10;18.50;;;;;;;2.40;77.91;99966.58;2280826;78;20903;-79
2022/12/01 01:49:39;;;;;;;26.80;16.97;;;;;;;2.39;78.04;99966.09;2277353;78;21299;-79
2022/12/01 01:52:39;;;;;;;27.67;17.20;;;;;;;2.37;78.28;99967.69;2277035;78;20903;-78
2022/12/01 01:55:40;;;;;;;27.73;17.77;;;;;;;2.36;78.28;99972.34;2277034;78;20895;-79
2022/12/01 01:58:40;;;;;;;25.83;17.27;;;;;;;2.37;78.47;99966.39;2276989;78;20891;-80
2022/12/01 02:01:40;;;;;;;28.30;19.57;;;;;;;2.38;78.49;99966.89;2277262;78;20855;-79
2022/12/01 02:04:41;;;;;;;28.50;18.10;;;;;;;2.35;78.65;99961.55;2277642;78;20938;-79
2022/12/01 02:07:41;;;;;;;28.87;18.63;;;;;;;2.37;78.84;99966.39;2277033;78;20926;-78
2022/12/01 02:10:42;;;;;;;26.63;17.87;;;;;;;2.40;78.98;99973.02;2276907;78;20945;-78
2022/12/01 02:13:42;;;;;;;73.67;21.20;;;;;;;2.43;78.85;99967.17;2276845;78;21306;-79
2022/12/01 02:16:42;;;;;;;27.87;18.63;;;;;;;2.41;78.90;99964.89;2277159;78;20899;-79
2022/12/01 02:19:43;;;;;;;26.70;17.93;;;;;;;2.41;79.03;99965.79;2277418;78;20927;-79
2022/12/01 02:22:43;;;;;;;31.07;18.83;;;;;;;2.37;79.15;99966.80;2277149;78;20887;-78
2022/12/01 02:25:44;;;;;;;29.30;18.27;;;;;;;2.34;79.32;99964.92;2276538;78;21069;-78
2022/12/01 02:28:44;;;;;;;31.33;17.87;;;;;;;2.31;79.45;99969.87;2276721;78;20949;-78
2022/12/01 02:31:44;;;;;;;31.67;19.60;;;;;;;2.30;79.68;99962.95;2276924;78;20883;-78
2022/12/01 02:34:45;;;;;;;29.00;19.17;;;;;;;2.33;79.85;99960.95;2276826;78;21267;-78
2022/12/01 02:37:45;;;;;;;28.83;17.93;;;;;;;2.33;79.96;99959.67;2276819;78;20922;-78
2022/12/01 02:40:46;;;;;;;31.87;18.97;;;;;;;2.32;80.05;99961.35;2276544;78;21082;-79
2022/12/01 02:43:46;;;;;;;28.37;18.83;;;;;;;2.34;80.15;99962.73;2276742;78;21325;-78
2022/12/01 02:46:46;;;;;;;27.97;18.70;;;;;;;2.34;80.32;99955.90;2276559;78;20927;-77
2022/12/01 02:49:47;;;;;;;31.37;19.73;;;;;;;2.33;80.30;99954.12;2241173;78;20973;-78
2022/12/01 02:52:47;;;;;;;113.10;23.47;;;;;;;2.30;80.43;99956.50;2235061;79;20882;-77
2022/12/01 02:55:48;;;;;;;30.27;19.97;;;;;;;2.29;80.59;99953.44;2234860;79;21325;-78
2022/12/01 02:58:48;;;;;;;38.33;19.23;;;;;;;2.29;81.23;99953.83;2234995;79;20923;-76
2022/12/01 03:01:50;;;;;;;28.27;19.80;;;;;;;2.29;81.23;99953.83;2234959;79;20966;-78
2022/12/01 03:04:49;;;;;;;31.60;18.73;;;;;;;2.27;81.14;99956.31;2235319;79;20902;-78
2022/12/01 03:07:49;;;;;;;27.00;19.40;;;;;;;2.31;81.28;99954.81;2235203;79;20898;-78
2022/12/01 03:10:50;;;;;;;30.33;19.57;;;;;;;2.32;81.51;99949.76;2234928;79;20922;-78
2022/12/01 03:13:50;;;;;;;30.57;19.97;;;;;;;2.33;81.60;99947.67;2235245;79;21005;-78
2022/12/01 03:16:51;;;;;;;30.83;20.03;;;;;;;2.38;81.73;99951.82;2235551;79;20906;-78
2022/12/01 03:19:51;;;;;;;29.20;20.87;;;;;;;2.37;81.68;99953.91;2235298;79;21312;-78
2022/12/01 03:22:51;;;;;;;40.77;20.53;;;;;;;2.33;81.82;99951.54;2235273;79;20867;-78
2022/12/01 03:25:52;;;;;;;35.87;22.73;;;;;;;2.31;82.08;99950.55;2235310;79;20938;-78
2022/12/01 03:28:53;;;;;;;35.87;23.27;;;;;;;2.25;82.86;99942.45;2235427;80;20918;-78
2022/12/01 03:31:57;;;;;;;33.60;21.87;;;;;;;2.19;83.00;99945.53;2235515;80;20910;-78
2022/12/01 03:34:57;;;;;;;30.97;21.00;;;;;;;2.19;83.04;99948.51;2235328;79;20910;-78
2022/12/01 03:37:57;;;;;;;34.20;21.73;;;;;;;2.21;83.19;99947.81;2234833;79;21238;-82
2022/12/01 03:40:57;;;;;;;38.50;23.77;;;;;;;2.18;83.45;99951.48;2234931;80;20957;-78
2022/12/01 03:43:57;;;;;;;32.43;22.27;;;;;;;2.21;83.67;99948.20;2235079;79;20933;-81
2022/12/01 03:46:58;;;;;;;35.93;21.27;;;;;;;2.20;83.91;99948.61;2235528;79;20941;-79
2022/12/01 03:49:59;;;;;;;32.93;22.00;;;;;;;2.14;84.24;99944.76;2272536;78;20998;-79
2022/12/01 03:52:59;;;;;;;36.77;22.90;;;;;;;2.12;84.11;99945.06;2279964;78;20953;-79
2022/12/01 03:56:00;;;;;;;36.13;22.13;;;;;;;2.14;84.65;99943.07;2279972;78;20906;-79
2022/12/01 03:58:59;;;;;;;31.80;21.53;;;;;;;2.10;84.48;99938.53;2279901;78;21558;-79
2022/12/01 04:02:00;;;;;;;36.10;20.80;;;;;;;2.08;84.76;99939.22;2280002;78;20926;-79
2022/12/01 04:05:00;;;;;;;39.10;22.70;;;;;;;2.04;85.02;99948.84;2280119;78;20910;-79
2022/12/01 04:08:01;;;;;;;31.80;21.67;;;;;;;2.02;85.22;99943.59;2280008;78;21377;-79
2022/12/01 04:12:27;;;;;;;50.33;22.37;;;;;;;2.05;85.18;99942.89;2279608;78;20907;-78
2022/12/01 04:14:01;;;;;;;36.67;20.87;;;;;;;2.04;85.48;99938.54;2279455;78;20958;-79
2022/12/01 04:17:02;;;;;;;33.40;20.80;;;;;;;2.04;85.50;99934.28;2279859;78;20911;-79
2022/12/01 04:20:03;;;;;;;31.73;20.37;;;;;;;1.99;85.71;99945.09;2279578;78;21384;-78
2022/12/01 04:23:03;;;;;;;30.03;20.63;;;;;;;1.98;85.90;99930.03;2279567;78;20946;-78
2022/12/01 04:26:03;;;;;;;35.27;22.03;;;;;;;2.02;85.80;99937.55;2279025;78;20919;-80
2022/12/01 04:29:04;;;;;;;33.70;22.40;;;;;;;2.03;86.00;99932.89;2278790;78;20977;-79
2022/12/01 04:32:04;;;;;;;30.70;20.67;;;;;;;2.05;86.12;99930.91;2279101;78;20906;-79
2022/12/01 04:35:05;;;;;;;30.43;19.57;;;;;;;2.10;86.04;99923.47;2280009;78;20863;-79
2022/12/01 04:38:05;;;;;;;36.07;13.13;;;;;;;2.10;85.90;99932.48;2279817;78;21317;-81
2022/12/01 04:41:05;;;;;;;29.77;19.00;;;;;;;3.86;100.00;99928.32;2279166;78;20902;-79
2022/12/01 04:44:06;;;;;;;30.73;18.20;;;;;;;6.62;87.09;99917.28;2279730;78;20981;-80
2022/12/01 04:47:06;;;;;;;107.60;19.77;;;;;;;5.95;79.36;99919.36;2279693;78;20919;-79
2022/12/01 04:50:06;;;;;;;39.53;17.57;;;;;;;5.22;81.48;99916.65;2279151;78;21116;-78
2022/12/01 04:53:07;;;;;;;30.73;17.07;;;;;;;5.70;78.11;99920.75;2279394;78;20945;-78
2022/12/01 04:56:07;;;;;;;22.43;16.67;;;;;;;5.03;77.18;99925.16;2278817;78;20949;-78
2022/12/01 04:59:08;;;;;;;22.53;16.30;;;;;;;4.40;77.24;99922.70;2278721;78;20978;-78
2022/12/01 05:02:08;;;;;;;23.13;16.50;;;;;;;3.89;78.12;99922.03;2278971;78;21271;-78
2022/12/01 05:05:08;;;;;;;24.53;17.03;;;;;;;3.56;78.86;99930.08;2279526;78;20886;-78
2022/12/01 05:08:09;;;;;;;29.73;11.03;;;;;;;3.20;79.70;99926.73;2278594;78;20911;-78
2022/12/01 05:11:10;;;;;;;21.53;15.43;;;;;;;4.40;97.23;99922.30;2278232;78;21386;-78
2022/12/01 05:14:10;;;;;;;21.43;15.00;;;;;;;6.81;81.65;99915.97;2278131;78;20981;-78
2022/12/01 05:17:10;;;;;;;21.27;15.27;;;;;;;6.05;76.27;99921.16;2278158;78;20946;-78
2022/12/01 05:23:29;;;;;;;20.60;15.37;;;;;;;4.56;76.17;99934.34;2277634;78;21290;-77
2022/12/01 05:26:30;;;;;;;21.67;14.87;;;;;;;4.02;77.05;99933.13;2278167;78;20906;-79
2022/12/01 05:29:31;;;;;;;25.27;15.80;;;;;;;3.68;77.94;99930.37;2278604;78;20922;-78
2022/12/01 05:32:30;;;;;;;21.77;15.67;;;;;;;3.54;79.24;99931.28;2279057;78;21325;-78
2022/12/01 05:35:31;;;;;;;21.47;14.93;;;;;;;3.36;79.35;99934.07;2278850;78;20953;-78
2022/12/01 05:38:31;;;;;;;22.47;15.83;;;;;;;3.07;79.80;99931.09;2278528;78;20957;-78
2022/12/01 05:41:32;;;;;;;21.33;15.30;;;;;;;2.91;80.37;99931.89;2278397;78;20990;-78
2022/12/01 05:44:32;;;;;;;19.47;14.10;;;;;;;2.83;81.41;99934.41;2277935;78;20938;-81
2022/12/01 05:47:33;;;;;;;20.23;15.03;;;;;;;2.72;81.68;99935.46;2277703;78;20933;-81
2022/12/01 05:50:37;;;;;;;20.03;14.83;;;;;;;2.66;82.00;99935.98;2274217;78;20973;-80
2022/12/01 05:53:33;;;;;;;98.63;59.90;;;;;;;2.56;82.09;99940.06;2274896;78;20899;-81
2022/12/01 05:56:34;;;;;;;30.23;21.00;;;;;;;2.53;82.58;99939.47;2274866;78;20951;-81
2022/12/01 05:59:34;;;;;;;25.23;16.00;;;;;;;2.50;82.65;99936.71;2275076;78;20906;-83
2022/12/01 06:02:35;;;;;;;22.90;15.20;;;;;;;2.42;82.92;99937.05;2274489;78;20899;-82
2022/12/01 06:05:35;;;;;;;20.60;16.10;;;;;;;2.38;83.01;99942.41;2274294;78;20910;-81
2022/12/01 06:08:35;;;;;;;24.67;15.53;;;;;;;2.36;83.29;99944.39;2274846;78;20911;-83
2022/12/01 06:11:36;;;;;;;21.63;15.07;;;;;;;2.31;83.60;99953.13;2274777;78;20923;-83
2022/12/01 06:14:36;;;;;;;20.83;15.13;;;;;;;2.25;83.71;99943.73;2274031;78;20978;-84
2022/12/01 06:17:37;;;;;;;18.47;13.90;;;;;;;2.24;83.89;99952.27;2274476;78;21318;-84
2022/12/01 06:20:37;;;;;;;23.33;14.93;;;;;;;2.20;84.17;99956.73;2274911;78;20911;-83
2022/12/01 06:23:37;;;;;;;22.93;14.70;;;;;;;2.16;84.20;99959.52;2274840;78;20943;-83
2022/12/01 06:26:38;;;;;;;24.13;15.83;;;;;;;2.10;84.32;99960.81;2274369;78;21325;-84
2022/12/01 06:29:38;;;;;;;20.20;14.17;;;;;;;2.14;84.46;99967.94;2274170;78;20939;-84
2022/12/01 06:32:39;;;;;;;21.43;14.60;;;;;;;2.19;84.54;99967.44;2273807;78;20903;-81
2022/12/01 06:35:39;;;;;;;26.43;17.53;;;;;;;2.21;84.44;99964.95;2274680;78;20895;-82
2022/12/01 06:38:39;;;;;;;51.63;21.60;;;;;;;2.21;84.39;99963.66;2274030;78;20926;-80
2022/12/01 06:41:40;;;;;;;47.17;18.60;;;;;;;2.21;84.44;99966.23;2273465;78;20947;-80
2022/12/01 06:44:40;;;;;;;48.10;20.77;;;;;;;2.21;84.74;99966.23;2273373;78;20939;-82
2022/12/01 06:47:41;;;;;;;35.47;18.83;;;;;;;2.23;84.40;99971.09;2273424;78;20947;-77
2022/12/01 06:50:42;;;;;;;28.40;16.73;;;;;;;2.23;84.34;99971.98;2272740;78;21762;-77
2022/12/01 06:53:43;;;;;;;23.77;14.53;;;;;;;2.23;84.46;99970.69;2273251;78;20899;-84
2022/12/01 06:56:44;;;;;;;23.37;14.60;;;;;;;2.24;84.45;99972.88;2273871;78;21327;-82
2022/12/01 06:59:44;;;;;;;18.60;13.57;;;;;;;2.26;84.34;99974.25;2274649;78;20989;-82
2022/12/01 07:02:46;;;;;;;21.03;14.47;;;;;;;2.29;84.60;99975.34;2254110;78;21299;-81
2022/12/01 07:05:46;;;;;;;23.50;13.43;;;;;;;2.32;84.48;99974.23;2274433;78;20911;-82
2022/12/01 07:08:48;;;;;;;20.13;14.00;;;;;;;2.36;84.34;99968.88;2273744;78;20919;-84
2022/12/01 07:11:49;;;;;;;23.53;14.17;;;;;;;2.37;84.24;99971.55;2273761;78;21635;-81
2022/12/01 07:14:49;;;;;;;23.33;13.90;;;;;;;2.40;84.35;99978.18;2273898;78;21018;-84
2022/12/01 07:17:49;;;;;;;25.33;14.03;;;;;;;2.42;84.17;99981.73;2274870;78;20903;-83
2022/12/01 07:20:50;;;;;;;21.23;14.33;;;;;;;2.48;84.14;99980.83;2274450;78;20989;-81
2022/12/01 07:23:50;;;;;;;25.57;15.93;;;;;;;2.49;84.16;99977.86;2274196;78;20958;-83
2022/12/01 07:26:51;;;;;;;20.17;14.33;;;;;;;2.51;84.10;99975.86;2274642;78;20910;-82
2022/12/01 07:29:54;;;;;;;24.67;14.37;;;;;;;2.52;83.97;99977.64;2274257;78;20997;-82
2022/12/01 07:32:57;;;;;;;18.67;13.17;;;;;;;2.48;83.78;99984.70;2274580;78;20879;-82
2022/12/01 07:35:57;;;;;;;18.67;13.27;;;;;;;2.48;84.05;99980.83;2253773;78;20907;-82
2022/12/01 07:38:57;;;;;;;21.90;13.20;;;;;;;2.46;83.81;99985.00;2273597;78;21017;-82
2022/12/01 07:41:57;;;;;;;23.37;12.97;;;;;;;2.48;83.98;99990.25;2273858;78;20914;-82
2022/12/01 07:44:58;;;;;;;27.97;13.23;;;;;;;2.47;83.94;99991.94;2273912;78;21005;-83
2022/12/01 07:47:58;;;;;;;18.97;12.90;;;;;;;2.47;83.86;99992.33;2274506;78;21010;-84
2022/12/01 07:50:59;;;;;;;18.43;13.97;;;;;;;2.46;83.88;99995.30;2277634;78;20986;-78
2022/12/01 07:53:59;;;;;;;34.20;13.37;;;;;;;2.48;83.91;99992.43;2279831;78;20941;-81
2022/12/01 07:56:59;;;;;;;17.03;13.07;;;;;;;2.51;84.06;99991.33;2278677;78;20894;-80
2022/12/01 08:00:00;;;;;;;64.77;14.73;;;;;;;2.51;83.60;99993.91;2277341;78;20938;-83
2022/12/01 08:03:00;;;;;;;14.70;11.37;;;;;;;2.53;83.74;99995.28;2278129;78;20996;-82
2022/12/01 08:06:01;;;;;;;17.33;12.57;;;;;;;2.56;83.54;99992.50;2277050;78;20990;-79
2022/12/01 08:09:03;;;;;;;18.00;12.57;;;;;;;2.52;83.43;99993.51;2256690;78;20961;-82
2022/12/01 08:12:03;;;;;;;22.77;13.13;;;;;;;2.50;83.47;99989.55;2277725;78;20949;-82
2022/12/01 08:15:04;;;;;;;36.63;14.70;;;;;;;2.53;83.53;99990.13;2278347;78;21322;-83
2022/12/01 08:18:04;;;;;;;18.07;12.57;;;;;;;2.55;83.92;99989.43;2278183;78;20989;-82
2022/12/01 08:21:05;;;;;;;20.47;13.23;;;;;;;2.60;83.54;99991.03;2277257;78;20962;-83
2022/12/01 08:24:05;;;;;;;26.37;13.47;;;;;;;2.62;83.48;99991.13;2278580;78;20918;-84
2022/12/01 08:27:06;;;;;;;24.13;16.20;;;;;;;2.68;83.51;99988.92;2278591;78;21301;-84
2022/12/01 08:30:06;;;;;;;45.03;22.13;;;;;;;2.71;83.22;99989.11;2277716;78;21274;-84
2022/12/01 08:33:06;;;;;;;21.57;14.60;;;;;;;2.74;83.19;99997.92;2277654;78;21322;-83
2022/12/01 08:36:07;;;;;;;24.20;15.27;;;;;;;2.78;82.99;99992.55;2278834;78;20910;-83
2022/12/01 08:39:07;;;;;;;21.03;13.70;;;;;;;2.82;82.46;99994.52;2278970;78;20942;-83
2022/12/01 08:42:08;;;;;;;18.80;12.70;;;;;;;2.83;82.66;99993.72;2278268;78;20918;-83
2022/12/01 08:45:08;;;;;;;18.83;12.80;;;;;;;2.88;82.82;100000.05;2277610;78;21711;-83
2022/12/01 08:48:08;;;;;;;17.53;12.37;;;;;;;2.88;82.19;99993.59;2277555;78;20907;-83
2022/12/01 08:51:09;;;;;;;15.70;12.00;;;;;;;2.82;82.09;99991.94;2276773;78;21326;-83
2022/12/01 08:54:09;;;;;;;18.80;13.10;;;;;;;2.79;82.12;99994.34;2277435;78;20894;-83
2022/12/01 08:57:10;;;;;;;31.87;12.67;;;;;;;2.71;82.03;100002.89;2278277;78;20883;-84
2022/12/01 09:00:11;;;;;;;17.23;11.73;;;;;;;2.73;82.24;100001.70;2278781;78;21550;-84
2022/12/01 09:03:11;;;;;;;17.10;12.57;;;;;;;2.77;82.15;99992.06;2278846;78;20942;-84
2022/12/01 09:06:11;;;;;;;20.30;13.43;;;;;;;2.79;82.23;99990.06;2278665;78;20919;-83
2022/12/01 09:09:11;;;;;;;16.53;12.63;;;;;;;2.84;81.90;99986.48;2278910;78;20875;-83
2022/12/01 09:12:12;;;;;;;13.87;12.23;;;;;;;2.82;81.60;99986.78;2277808;78;20933;-83
2022/12/01 09:15:13;;;;;;;13.97;11.80;;;;;;;2.83;81.94;99985.59;2277581;78;20974;-84
2022/12/01 09:18:13;;;;;;;45.80;11.97;;;;;;;2.87;81.67;99978.52;2277359;78;21140;-84
2022/12/01 09:21:13;;;;;;;16.93;11.90;;;;;;;2.93;81.78;99984.45;2277734;78;21634;-83
2022/12/01 09:24:14;;;;;;;14.60;11.23;;;;;;;2.95;81.01;99973.83;2276989;78;20899;-82
2022/12/01 09:27:14;;;;;;;17.27;12.17;;;;;;;2.95;81.17;99980.67;2277624;78;20918;-83
2022/12/01 09:30:18;;;;;;;62.40;13.23;;;;;;;2.94;81.19;99973.34;2278469;78;20957;-82
2022/12/01 09:33:18;;;;;;;18.00;13.67;;;;;;;2.94;81.13;99975.91;2277308;78;20917;-83
2022/12/01 09:36:18;;;;;;;52.80;19.03;;;;;;;2.95;80.84;99969.95;2277196;78;20918;-83
2022/12/01 09:39:19;;;;;;;29.50;15.00;;;;;;;2.96;81.07;99970.45;2279258;78;20954;-83
2022/12/01 09:42:26;;;;;;;22.07;12.93;;;;;;;3.00;81.14;99974.09;2278874;78;20911;-82
2022/12/01 09:45:20;;;;;;;30.43;17.63;;;;;;;3.07;81.19;99967.21;2277841;78;21421;-82
2022/12/01 09:48:20;;;;;;;30.00;17.30;;;;;;;3.14;81.05;99968.95;2279384;78;21008;-82
2022/12/01 09:51:20;;;;;;;32.00;21.20;;;;;;;3.19;80.82;99969.22;2277868;78;21132;-83
2022/12/01 09:54:21;;;;;;;21.83;15.87;;;;;;;3.19;80.52;99967.53;2278354;78;20910;-83
2022/12/01 09:57:21;;;;;;;18.10;13.30;;;;;;;3.22;80.31;99965.94;2278844;78;20910;-82
2022/12/01 10:00:22;;;;;;;36.50;20.50;;;;;;;3.18;80.36;99965.75;2277975;78;21602;-82
2022/12/01 10:03:22;;;;;;;32.83;16.17;;;;;;;3.20;80.52;99971.89;2278292;78;20911;-82
2022/12/01 10:06:22;;;;;;;18.07;14.23;;;;;;;3.18;80.58;99959.30;2279230;78;20914;-83
2022/12/01 10:09:23;;;;;;;26.60;17.33;;;;;;;3.06;80.37;99961.56;2278569;78;20907;-82
2022/12/01 10:12:26;;;;;;;18.43;14.13;;;;;;;3.01;80.87;99956.53;2278303;78;20907;-84
2022/12/01 10:15:24;;;;;;;27.33;15.43;;;;;;;2.99;80.82;99962.89;2277686;78;21325;-82
2022/12/01 10:18:24;;;;;;;18.83;12.87;;;;;;;3.05;81.07;99963.25;2277935;78;20969;-82
2022/12/01 10:21:25;;;;;;;22.40;14.70;;;;;;;3.06;80.81;99957.69;2278641;78;20990;-83
2022/12/01 10:24:25;;;;;;;23.17;14.70;;;;;;;3.07;80.77;99956.89;2278395;78;21302;-82
2022/12/01 10:27:25;;;;;;;50.63;31.10;;;;;;;3.07;80.69;99956.89;2277927;78;20910;-81
2022/12/01 10:30:26;;;;;;;23.40;14.80;;;;;;;3.08;80.76;99952.23;2278143;78;20883;-82
2022/12/01 10:33:26;;;;;;;19.40;12.97;;;;;;;3.12;80.34;99957.66;2278698;78;20911;-84
2022/12/01 10:36:27;;;;;;;53.87;13.90;;;;;;;3.10;80.29;99954.09;2278184;78;21325;-79
2022/12/01 10:39:27;;;;;;;15.33;11.57;;;;;;;3.03;80.47;99954.53;2278320;78;20958;-81
2022/12/01 10:42:27;;;;;;;16.77;12.23;;;;;;;3.07;80.71;99953.91;2278157;78;20941;-81
2022/12/01 10:45:28;;;;;;;16.10;11.30;;;;;;;3.08;80.40;99951.83;2277446;78;20970;-82
2022/12/01 10:48:28;;;;;;;20.73;12.27;;;;;;;3.11;80.30;99937.81;2278613;78;20894;-83
2022/12/01 10:51:29;;;;;;;15.83;11.87;;;;;;;3.11;80.73;99936.92;2242650;78;20981;-82
2022/12/01 10:54:29;;;;;;;14.37;10.90;;;;;;;3.15;80.26;99933.33;2232372;79;20953;-82
2022/12/01 10:57:29;;;;;;;18.93;11.83;;;;;;;3.17;80.10;99939.46;2232555;79;20938;-82
2022/12/01 11:00:30;;;;;;;15.57;11.10;;;;;;;3.14;80.18;99928.97;2232114;79;20945;-81
2022/12/01 11:03:30;;;;;;;14.33;11.03;;;;;;;3.14;79.65;99931.55;2232452;79;21270;-81
2022/12/01 11:06:31;;;;;;;12.33;10.13;;;;;;;3.16;79.89;99928.66;2232841;79;20950;-82
2022/12/01 11:09:31;;;;;;;16.77;11.67;;;;;;;3.19;79.38;99932.70;2232577;79;20886;-81
2022/12/01 11:12:31;;;;;;;21.30;12.77;;;;;;;3.21;79.64;99925.05;2232903;79;20917;-81
2022/12/01 11:15:32;;;;;;;15.97;11.23;;;;;;;3.26;79.61;99927.49;2232768;79;20965;-81
2022/12/01 11:18:32;;;;;;;21.90;11.30;;;;;;;3.26;79.20;99929.19;2232468;79;20945;-81
2022/12/01 11:21:33;;;;;;;26.00;11.00;;;;;;;3.29;78.70;99929.36;2232969;79;21024;-81
2022/12/01 11:24:33;;;;;;;13.30;10.30;;;;;;;3.27;77.88;99928.38;2232566;79;20882;-80
2022/12/01 11:27:34;;;;;;;13.13;9.40;;;;;;;3.17;77.87;99929.55;2232148;79;21130;-83
2022/12/01 11:30:34;;;;;;;14.10;9.30;;;;;;;3.14;78.31;99924.20;2232181;79;21357;-81
2022/12/01 11:33:35;;;;;;;34.47;9.63;;;;;;;3.04;78.07;99923.18;2231545;79;21021;-82
2022/12/01 11:36:35;;;;;;;45.70;9.97;;;;;;;3.00;78.21;99918.24;2231587;79;20965;-82
2022/12/01 11:39:35;;;;;;;8.47;7.47;;;;;;;2.96;78.07;99917.58;2231992;79;21376;-82
2022/12/01 11:42:36;;;;;;;24.33;8.90;;;;;;;2.98;78.12;99922.82;2232653;79;20913;-79
2022/12/01 11:45:38;;;;;;;9.20;7.00;;;;;;;2.99;77.77;99920.33;2232431;80;21008;-81
2022/12/01 11:48:36;;;;;;;9.83;7.40;;;;;;;2.97;77.03;99914.59;2232480;79;20910;-80
2022/12/01 11:51:37;;;;;;;8.17;6.60;;;;;;;2.95;76.93;99913.61;2265899;78;21394;-81
2022/12/01 11:54:37;;;;;;;9.57;6.70;;;;;;;2.79;76.33;99915.29;2278930;78;21321;-83
2022/12/01 11:57:42;;;;;;;7.53;6.37;;;;;;;2.79;76.33;99915.29;2278197;78;20942;-83
2022/12/01 12:00:40;;;;;;;9.33;6.77;;;;;;;2.75;76.91;99913.73;2256335;78;20911;-82
2022/12/01 12:03:40;;;;;;;8.10;6.23;;;;;;;2.76;77.01;99915.11;2278214;78;20919;-83
2022/12/01 12:06:41;;;;;;;10.80;7.17;;;;;;;2.79;76.86;99911.82;2278498;78;20923;-82
2022/12/01 12:09:41;;;;;;;36.17;8.67;;;;;;;2.75;77.07;99913.33;2277778;78;20914;-83
2022/12/01 12:12:42;;;;;;;20.63;8.17;;;;;;;2.76;76.89;99905.19;2277180;78;20879;-83
2022/12/01 12:15:42;;;;;;;8.93;7.03;;;;;;;2.73;77.03;99908.87;2276978;78;20954;-84
2022/12/01 12:18:43;;;;;;;10.80;8.13;;;;;;;2.69;76.83;99901.77;2277346;78;20958;-84
2022/12/01 12:21:43;;;;;;;14.20;8.30;;;;;;;2.65;76.61;99908.83;2279074;78;20973;-84
2022/12/01 12:24:43;;;;;;;12.33;8.30;;;;;;;2.60;76.60;99908.55;2277832;78;20918;-82
2022/12/01 12:27:44;;;;;;;9.37;8.17;;;;;;;2.54;76.26;99911.62;2277919;78;20871;-83
2022/12/01 12:30:44;;;;;;;11.73;8.07;;;;;;;2.43;75.90;99907.90;2277229;78;20934;-83
2022/12/01 12:33:45;;;;;;;26.20;7.77;;;;;;;2.38;76.28;99905.05;2278370;78;20875;-83
2022/12/01 12:36:45;;;;;;;18.47;8.17;;;;;;;2.36;76.97;99913.08;2277850;78;20918;-81
2022/12/01 12:39:45;;;;;;;10.07;7.90;;;;;;;2.37;76.66;99916.15;2277554;78;20927;-82
2022/12/01 12:42:46;;;;;;;9.13;8.13;;;;;;;2.34;76.49;99921.11;2277301;78;20916;-81
2022/12/01 12:45:49;;;;;;;10.37;7.63;;;;;;;2.33;76.88;99903.88;2277204;78;20954;-82
2022/12/01 12:48:49;;;;;;;14.83;8.07;;;;;;;2.32;77.07;99905.06;2277248;78;20915;-81
2022/12/01 12:51:50;;;;;;;13.97;9.50;;;;;;;2.27;76.90;99908.66;2276391;78;21377;-81
2022/12/01 12:54:50;;;;;;;82.00;12.40;;;;;;;2.27;77.39;99906.48;2277000;78;21361;-77
2022/12/01 12:57:50;;;;;;;31.37;10.97;;;;;;;2.29;77.96;99916.08;2275579;78;21291;-82
2022/12/01 13:00:51;;;;;;;9.93;7.67;;;;;;;2.37;78.34;99916.15;2276950;78;20902;-81
2022/12/01 13:03:51;;;;;;;12.77;8.47;;;;;;;2.38;77.57;99914.06;2276801;78;20883;-82
2022/12/01 13:06:52;;;;;;;18.43;9.77;;;;;;;2.33;77.66;99915.47;2278100;78;21447;-82
2022/12/01 13:09:52;;;;;;;9.80;8.13;;;;;;;2.28;77.31;99913.02;2277497;78;20894;-82
2022/12/01 13:12:55;;;;;;;10.13;8.13;;;;;;;2.25;77.62;99915.40;2278030;78;20922;-79
2022/12/01 13:15:56;;;;;;;9.27;8.37;;;;;;;2.21;77.42;99918.19;2276966;78;21401;-81
2022/12/01 13:19:01;;;;;;;11.00;8.47;;;;;;;2.23;77.92;99922.14;2276410;78;20906;-81
2022/12/01 13:21:57;;;;;;;10.83;9.43;;;;;;;2.28;77.68;99919.45;2275735;78;20930;-82
2022/12/01 13:24:57;;;;;;;10.70;8.53;;;;;;;2.29;77.39;99920.34;2275240;78;20937;-81
2022/12/01 13:27:57;;;;;;;41.57;9.80;;;;;;;2.29;77.69;99920.34;2276147;78;21347;-80
2022/12/01 13:30:58;;;;;;;38.40;9.47;;;;;;;2.33;77.74;99917.16;2276573;78;21319;-81
2022/12/01 13:33:58;;;;;;;13.00;9.03;;;;;;;2.29;77.48;99917.36;2275746;78;20934;-81
2022/12/01 13:36:59;;;;;;;9.23;8.23;;;;;;;2.22;77.34;99919.97;2276179;78;20899;-81
2022/12/01 13:40:02;;;;;;;10.33;8.53;;;;;;;2.21;77.34;99922.45;2276721;78;20965;-82
2022/12/01 13:43:01;;;;;;;10.60;7.80;;;;;;;2.16;77.25;99923.45;2256229;78;20934;-82
2022/12/01 13:46:02;;;;;;;9.00;7.50;;;;;;;2.11;77.31;99915.84;2277530;78;20962;-83
2022/12/01 13:49:02;;;;;;;15.40;8.67;;;;;;;2.03;77.30;99917.45;2277381;78;21256;-82
2022/12/01 13:52:03;;;;;;;12.27;8.03;;;;;;;1.99;77.74;99913.79;2276779;78;20963;-83
2022/12/01 13:55:03;;;;;;;11.63;9.23;;;;;;;2.01;77.97;99915.17;2277756;78;20919;-82
2022/12/01 13:58:03;;;;;;;11.60;9.33;;;;;;;2.00;77.93;99908.24;2277458;78;20918;-84
2022/12/01 14:01:06;;;;;;;11.20;8.77;;;;;;;1.95;78.18;99907.06;2257509;78;20938;-84
2022/12/01 14:04:06;;;;;;;45.70;24.80;;;;;;;1.93;78.08;99912.12;2276882;78;20887;-82